createdAt,value
2018-12-30T00:01:14.548Z,6.35
2018-12-30T00:03:47.242Z,5.68
2018-12-30T00:06:21.864Z,3.35
2018-12-30T00:08:56.322Z,5.03
2018-12-30T00:11:29.998Z,4.18
2018-12-30T00:14:03.734Z,4.43
2018-12-30T00:16:37.314Z,4.10
2018-12-30T00:19:11.707Z,4.70
2018-12-30T00:21:45.639Z,3.15
2018-12-30T00:24:19.958Z,3.28
2018-12-30T00:26:53.851Z,3.95
2018-12-30T00:29:27.543Z,3.12
2018-12-30T00:32:01.068Z,3.50
2018-12-30T00:34:34.708Z,3.17
2018-12-30T00:37:08.254Z,4.03
2018-12-30T00:39:41.947Z,3.08
2018-12-30T00:42:15.544Z,3.00
2018-12-30T00:44:50.077Z,4.57
2018-12-30T00:47:23.799Z,2.95
2018-12-30T00:49:57.450Z,3.60
2018-12-30T00:52:31.811Z,3.35
2018-12-30T00:55:05.530Z,3.65
2018-12-30T00:57:39.289Z,4.32
2018-12-30T01:00:12.844Z,4.97
2018-12-30T01:02:46.595Z,3.87
2018-12-30T01:05:20.220Z,3.50
2018-12-30T01:07:53.912Z,4.37
2018-12-30T01:10:27.652Z,4.12
2018-12-30T01:13:01.429Z,4.10
2018-12-30T01:15:35.169Z,4.80
2018-12-30T01:18:08.887Z,4.37
2018-12-30T01:20:42.533Z,3.90
2018-12-30T01:23:16.232Z,4.55
2018-12-30T01:25:49.829Z,4.07
2018-12-30T01:28:23.393Z,5.00
2018-12-30T01:30:57.240Z,5.05
2018-12-30T01:33:30.886Z,5.62
2018-12-30T01:36:04.426Z,3.83
2018-12-30T01:38:38.036Z,4.47
2018-12-30T01:41:12.236Z,4.40
2018-12-30T01:43:45.870Z,4.93
2018-12-30T01:46:19.652Z,5.15
2018-12-30T01:48:53.265Z,4.37
2018-12-30T01:51:33.038Z,4.05
2018-12-30T01:54:00.375Z,4.15
2018-12-30T01:56:33.978Z,4.60
2018-12-30T01:59:08.404Z,3.17
2018-12-30T02:01:42.821Z,4.53
2018-12-30T02:04:16.522Z,3.35
2018-12-30T02:06:50.296Z,4.12
2018-12-30T02:09:24.647Z,3.72
2018-12-30T02:11:59.248Z,3.60
2018-12-30T02:14:32.903Z,3.47
2018-12-30T02:17:06.630Z,4.45
2018-12-30T02:19:40.279Z,3.58
2018-12-30T02:22:13.880Z,4.70
2018-12-30T02:24:47.459Z,5.12
2018-12-30T02:27:21.190Z,4.75
2018-12-30T02:29:54.796Z,3.40
2018-12-30T02:32:28.390Z,4.10
2018-12-30T02:35:02.213Z,4.32
2018-12-30T02:37:35.824Z,4.20
2018-12-30T02:40:09.528Z,4.35
2018-12-30T02:42:43.128Z,4.30
2018-12-30T02:45:16.998Z,3.17
2018-12-30T02:47:50.457Z,3.95
2018-12-30T02:50:24.042Z,4.45
2018-12-30T02:52:57.696Z,3.67
2018-12-30T02:55:31.455Z,3.97
2018-12-30T02:58:05.245Z,4.28
2018-12-30T03:00:38.954Z,4.15
2018-12-30T03:03:12.553Z,4.03
2018-12-30T03:05:46.125Z,4.95
2018-12-30T03:08:19.689Z,4.93
2018-12-30T03:10:53.459Z,3.87
2018-12-30T03:13:27.169Z,4.20
2018-12-30T03:16:02.366Z,4.87
2018-12-30T03:18:35.910Z,4.72
2018-12-30T03:21:09.479Z,4.70
2018-12-30T03:23:44.080Z,4.32
2018-12-30T03:26:17.607Z,7.70
2018-12-30T03:28:51.886Z,4.15
2018-12-30T03:31:25.612Z,4.47
2018-12-30T03:33:59.201Z,4.65
2018-12-30T03:36:32.892Z,3.75
2018-12-30T03:39:07.343Z,4.87
2018-12-30T03:41:40.880Z,5.30
2018-12-30T03:44:14.432Z,5.05
2018-12-30T03:46:48.049Z,4.70
2018-12-30T03:49:21.615Z,4.35
2018-12-30T03:51:55.280Z,3.85
2018-12-30T03:54:28.874Z,4.30
2018-12-30T03:57:02.610Z,5.43
2018-12-30T03:59:36.182Z,5.12
2018-12-30T04:02:09.871Z,4.57
2018-12-30T04:04:43.457Z,3.55
2018-12-30T04:07:17.905Z,5.00
2018-12-30T04:09:51.693Z,5.05
2018-12-30T04:12:25.180Z,3.80
2018-12-30T04:14:58.920Z,4.03
2018-12-30T04:17:32.768Z,5.15
2018-12-30T04:20:06.372Z,4.75
2018-12-30T04:22:40.123Z,4.85
2018-12-30T04:25:13.718Z,4.50
2018-12-30T04:27:47.841Z,4.50
2018-12-30T04:30:22.315Z,3.97
2018-12-30T04:32:56.071Z,4.07
2018-12-30T04:35:30.540Z,4.12
2018-12-30T04:38:04.154Z,3.60
2018-12-30T04:40:37.793Z,4.35
2018-12-30T04:43:12.298Z,5.03
2018-12-30T04:45:46.695Z,4.37
2018-12-30T04:48:20.390Z,4.53
2018-12-30T04:50:54.027Z,4.82
2018-12-30T04:53:27.744Z,3.80
2018-12-30T04:56:01.399Z,4.70
2018-12-30T04:58:35.048Z,3.65
2018-12-30T05:01:08.845Z,4.18
2018-12-30T05:03:42.428Z,4.68
2018-12-30T05:06:16.024Z,3.12
2018-12-30T05:08:49.627Z,4.72
2018-12-30T05:11:23.166Z,4.05
2018-12-30T05:13:56.771Z,4.70
2018-12-30T05:16:30.551Z,4.10
2018-12-30T05:19:04.131Z,4.00
2018-12-30T05:21:37.964Z,3.70
2018-12-30T05:24:11.655Z,4.93
2018-12-30T05:26:45.223Z,4.12
2018-12-30T05:29:18.783Z,3.67
2018-12-30T05:31:53.189Z,3.75
2018-12-30T05:34:26.825Z,3.35
2018-12-30T05:37:00.507Z,2.40
2018-12-30T05:39:34.920Z,3.40
2018-12-30T05:42:08.491Z,3.97
2018-12-30T05:44:42.116Z,3.25
2018-12-30T05:47:15.747Z,2.70
2018-12-30T05:49:49.334Z,3.65
2018-12-30T05:52:22.833Z,4.07
2018-12-30T05:54:56.543Z,2.97
2018-12-30T05:57:30.300Z,3.00
2018-12-30T06:00:03.907Z,3.25
2018-12-30T06:02:38.454Z,3.50
2018-12-30T06:05:12.109Z,2.87
2018-12-30T06:07:45.623Z,4.05
2018-12-30T06:10:19.192Z,3.20
2018-12-30T06:12:52.732Z,4.07
2018-12-30T06:15:26.358Z,4.00
2018-12-30T06:18:00.084Z,3.20
2018-12-30T06:20:34.558Z,3.22
2018-12-30T06:23:08.076Z,3.58
2018-12-30T06:25:41.707Z,3.67
2018-12-30T06:28:15.466Z,3.45
2018-12-30T06:30:49.071Z,3.22
2018-12-30T06:33:22.849Z,3.85
2018-12-30T06:35:57.058Z,3.97
2018-12-30T06:38:30.816Z,3.40
2018-12-30T06:41:04.661Z,3.08
2018-12-30T06:43:38.331Z,4.07
2018-12-30T06:46:11.905Z,3.85
2018-12-30T06:48:45.540Z,3.37
2018-12-30T06:51:19.364Z,3.53
2018-12-30T06:53:52.876Z,3.62
2018-12-30T06:56:26.538Z,4.30
2018-12-30T06:59:00.111Z,3.87
2018-12-30T07:01:33.842Z,3.30
2018-12-30T07:04:07.566Z,3.03
2018-12-30T07:06:41.106Z,4.07
2018-12-30T07:09:14.633Z,3.78
2018-12-30T07:11:48.199Z,4.10
2018-12-30T07:14:22.560Z,4.03
2018-12-30T07:16:56.253Z,3.83
2018-12-30T07:19:29.850Z,5.18
2018-12-30T07:22:03.416Z,4.00
2018-12-30T07:24:37.142Z,3.75
2018-12-30T07:27:10.728Z,2.62
2018-12-30T07:29:44.549Z,3.97
2018-12-30T07:32:18.263Z,3.03
2018-12-30T07:34:51.975Z,4.53
2018-12-30T07:37:25.566Z,4.43
2018-12-30T07:39:59.152Z,2.87
2018-12-30T07:42:33.518Z,3.28
2018-12-30T07:45:08.014Z,3.87
2018-12-30T07:47:41.788Z,3.03
2018-12-30T07:50:15.365Z,2.80
2018-12-30T07:52:49.967Z,3.05
2018-12-30T07:55:23.695Z,3.78
2018-12-30T07:57:57.383Z,2.80
2018-12-30T08:00:31.155Z,3.35
2018-12-30T08:03:04.866Z,3.30
2018-12-30T08:05:38.588Z,4.00
2018-12-30T08:08:13.076Z,3.67
2018-12-30T08:10:46.854Z,3.75
2018-12-30T08:13:21.211Z,3.87
2018-12-30T08:15:54.898Z,3.15
2018-12-30T08:18:28.532Z,3.35
2018-12-30T08:21:02.103Z,3.35
2018-12-30T08:23:35.693Z,3.00
2018-12-30T08:26:09.448Z,3.62
2018-12-30T08:28:43.039Z,2.55
2018-12-30T08:31:16.695Z,4.15
2018-12-30T08:33:50.324Z,2.75
2018-12-30T08:36:23.880Z,3.20
2018-12-30T08:38:57.446Z,2.72
2018-12-30T08:41:31.007Z,2.03
2018-12-30T08:44:05.584Z,3.83
2018-12-30T08:46:39.264Z,3.45
2018-12-30T08:49:12.935Z,2.47
2018-12-30T08:51:46.508Z,3.45
2018-12-30T08:54:20.276Z,3.15
2018-12-30T08:56:53.878Z,2.75
2018-12-30T08:59:27.407Z,3.35
2018-12-30T09:02:01.108Z,2.65
2018-12-30T09:04:34.667Z,2.53
2018-12-30T09:07:09.223Z,3.03
2018-12-30T09:09:42.803Z,2.47
2018-12-30T09:12:16.398Z,2.45
2018-12-30T09:14:50.236Z,2.35
2018-12-30T09:17:24.047Z,2.67
2018-12-30T09:19:57.684Z,3.28
2018-12-30T09:22:32.033Z,3.10
2018-12-30T09:25:06.330Z,3.15
2018-12-30T09:27:40.096Z,2.83
2018-12-30T09:30:13.796Z,3.25
2018-12-30T09:32:47.476Z,3.25
2018-12-30T09:35:21.040Z,3.42
2018-12-30T09:37:54.588Z,2.95
2018-12-30T09:40:28.232Z,3.10
2018-12-30T09:43:02.662Z,3.28
2018-12-30T09:45:36.194Z,2.90
2018-12-30T09:48:09.767Z,3.58
2018-12-30T09:50:43.499Z,2.85
2018-12-30T09:53:17.124Z,3.15
2018-12-30T09:55:50.925Z,2.72
2018-12-30T09:58:24.649Z,4.57
2018-12-30T10:00:58.288Z,2.90
2018-12-30T10:03:32.720Z,2.55
2018-12-30T10:06:06.413Z,2.62
2018-12-30T10:08:40.684Z,2.92
2018-12-30T10:11:14.240Z,3.22
2018-12-30T10:13:47.920Z,2.65
2018-12-30T10:16:21.478Z,2.95
2018-12-30T10:18:55.874Z,2.83
2018-12-30T10:21:29.578Z,2.33
2018-12-30T10:24:03.282Z,3.10
2018-12-30T10:26:37.735Z,3.10
2018-12-30T10:29:11.399Z,3.33
2018-12-30T10:31:45.004Z,2.55
2018-12-30T10:34:18.792Z,2.90
2018-12-30T10:36:52.349Z,2.58
2018-12-30T10:39:27.060Z,2.87
2018-12-30T10:42:00.752Z,3.60
2018-12-30T10:44:34.334Z,3.60
2018-12-30T10:47:07.933Z,3.10
2018-12-30T10:49:42.576Z,3.28
2018-12-30T10:52:16.368Z,3.97
2018-12-30T10:54:49.905Z,3.87
2018-12-30T10:57:23.590Z,2.90
2018-12-30T10:59:58.082Z,3.05
2018-12-30T11:02:32.509Z,2.90
2018-12-30T11:05:06.045Z,2.72
2018-12-30T11:07:39.625Z,4.00
2018-12-30T11:10:13.280Z,3.58
2018-12-30T11:12:47.078Z,3.67
2018-12-30T11:15:20.781Z,4.10
2018-12-30T11:17:54.435Z,3.50
2018-12-30T11:20:28.014Z,3.92
2018-12-30T11:23:01.676Z,4.25
2018-12-30T11:25:35.358Z,4.35
2018-12-30T11:28:08.916Z,4.10
2018-12-30T11:30:42.407Z,3.72
2018-12-30T11:33:16.087Z,2.35
2018-12-30T11:35:49.766Z,3.10
2018-12-30T11:38:23.368Z,2.60
2018-12-30T11:40:57.900Z,4.22
2018-12-30T11:43:31.714Z,2.37
2018-12-30T11:46:05.582Z,2.87
2018-12-30T11:48:39.116Z,3.05
2018-12-30T11:51:12.855Z,3.40
2018-12-30T11:53:46.523Z,2.90
2018-12-30T11:56:20.381Z,3.08
2018-12-30T11:58:54.042Z,3.35
2018-12-30T12:01:27.690Z,2.42
2018-12-30T12:04:01.354Z,3.15
2018-12-30T12:06:35.069Z,4.87
2018-12-30T12:09:09.409Z,4.12
2018-12-30T12:11:43.018Z,2.50
2018-12-30T12:14:16.759Z,3.30
2018-12-30T12:16:50.323Z,3.37
2018-12-30T12:19:24.057Z,2.58
2018-12-30T12:21:57.687Z,2.65
2018-12-30T12:24:31.288Z,3.58
2018-12-30T12:27:04.974Z,3.25
2018-12-30T12:29:38.492Z,2.72
2018-12-30T12:32:12.038Z,2.85
2018-12-30T12:34:45.637Z,2.92
2018-12-30T12:37:19.951Z,2.78
2018-12-30T12:39:53.621Z,2.95
2018-12-30T12:42:27.389Z,3.40
2018-12-30T12:45:00.965Z,5.20
2018-12-30T12:47:34.697Z,3.40
2018-12-30T12:50:08.439Z,2.83
2018-12-30T12:52:42.631Z,3.47
2018-12-30T12:55:16.382Z,3.35
2018-12-30T12:57:49.947Z,3.72
2018-12-30T13:00:23.603Z,4.25
2018-12-30T13:02:57.205Z,3.35
2018-12-30T13:05:30.789Z,3.35
2018-12-30T13:08:04.342Z,3.30
2018-12-30T13:10:37.971Z,2.90
2018-12-30T13:13:11.631Z,3.45
2018-12-30T13:15:45.991Z,3.10
2018-12-30T13:18:19.213Z,3.08
2018-12-30T13:20:52.990Z,3.22
2018-12-30T13:23:26.611Z,3.50
2018-12-30T13:26:00.403Z,3.30
2018-12-30T13:28:35.920Z,2.83
2018-12-30T13:31:09.508Z,3.60
2018-12-30T13:33:43.239Z,3.05
2018-12-30T13:36:17.032Z,3.12
2018-12-30T13:38:50.807Z,3.03
2018-12-30T13:41:24.626Z,2.78
2018-12-30T13:43:58.493Z,2.70
2018-12-30T13:46:32.214Z,3.62
2018-12-30T13:49:05.951Z,3.28
2018-12-30T13:51:39.503Z,2.95
2018-12-30T13:54:13.359Z,3.60
2018-12-30T13:56:47.034Z,3.25
2018-12-30T13:59:20.856Z,3.55
2018-12-30T14:01:54.515Z,3.65
2018-12-30T14:04:29.243Z,2.90
2018-12-30T14:07:01.847Z,4.20
2018-12-30T14:09:36.307Z,3.12
2018-12-30T14:12:10.054Z,2.92
2018-12-30T14:14:43.785Z,6.32
2018-12-30T14:17:17.353Z,2.72
2018-12-30T14:19:51.121Z,3.70
2018-12-30T14:22:24.892Z,3.47
2018-12-30T14:24:58.406Z,2.90
2018-12-30T14:27:32.018Z,6.90
2018-12-30T14:30:05.748Z,3.40
2018-12-30T14:32:39.437Z,3.12
2018-12-30T14:35:13.246Z,2.67
2018-12-30T14:37:47.487Z,3.10
2018-12-30T14:40:21.010Z,4.05
2018-12-30T14:42:54.739Z,5.22
2018-12-30T14:45:28.797Z,2.62
2018-12-30T14:48:02.359Z,3.85
2018-12-30T14:50:36.012Z,3.05
2018-12-30T14:53:18.817Z,2.97
2018-12-30T14:55:43.247Z,3.20
2018-12-30T14:58:16.813Z,3.70
2018-12-30T15:00:50.579Z,3.40
2018-12-30T15:03:24.384Z,3.20
2018-12-30T15:05:58.090Z,2.83
2018-12-30T15:08:31.806Z,4.03
2018-12-30T15:11:05.597Z,3.08
2018-12-30T15:13:39.375Z,3.17
2018-12-30T15:16:13.074Z,6.47
2018-12-30T15:18:46.657Z,4.12
2018-12-30T15:21:20.252Z,4.95
2018-12-30T15:23:53.825Z,3.78
2018-12-30T15:26:27.378Z,4.60
2018-12-30T15:29:00.907Z,3.80
2018-12-30T15:31:34.448Z,4.10
2018-12-30T15:34:07.964Z,5.70
2018-12-30T15:36:41.501Z,4.25
2018-12-30T15:39:15.898Z,4.25
2018-12-30T15:41:49.588Z,4.10
2018-12-30T15:44:23.172Z,4.32
2018-12-30T15:46:56.804Z,4.68
2018-12-30T15:49:30.546Z,4.60
2018-12-30T15:52:04.214Z,4.22
2018-12-30T15:54:38.727Z,4.12
2018-12-30T15:57:13.053Z,5.30
2018-12-30T15:59:46.685Z,4.43
2018-12-30T16:02:20.240Z,4.20
2018-12-30T16:04:53.899Z,4.87
2018-12-30T16:07:27.695Z,7.00
2018-12-30T16:10:01.493Z,3.85
2018-12-30T16:12:35.054Z,4.72
2018-12-30T16:15:09.567Z,4.85
2018-12-30T16:17:43.327Z,5.25
2018-12-30T16:20:17.107Z,4.55
2018-12-30T16:22:50.851Z,5.30
2018-12-30T16:25:27.228Z,5.40
2018-12-30T16:27:58.983Z,5.50
2018-12-30T16:30:32.503Z,10.88
2018-12-30T16:33:06.065Z,5.15
2018-12-30T16:35:39.676Z,5.68
2018-12-30T16:38:13.231Z,4.35
2018-12-30T16:40:47.739Z,4.93
2018-12-30T16:43:21.415Z,4.10
2018-12-30T16:45:55.119Z,5.40
2018-12-30T16:48:29.592Z,5.00
2018-12-30T16:51:03.368Z,4.87
2018-12-30T16:53:37.114Z,4.35
2018-12-30T16:56:10.758Z,5.03
2018-12-30T16:58:44.412Z,4.55
2018-12-30T17:01:18.030Z,4.80
2018-12-30T17:03:51.772Z,6.90
2018-12-30T17:06:25.381Z,4.65
2018-12-30T17:08:59.014Z,4.80
2018-12-30T17:11:32.801Z,5.55
2018-12-30T17:14:06.462Z,5.50
2018-12-30T17:16:39.987Z,4.20
2018-12-30T17:19:13.631Z,4.00
2018-12-30T17:21:47.388Z,5.30
2018-12-30T17:24:21.138Z,4.87
2018-12-30T17:26:54.826Z,4.40
2018-12-30T17:29:28.356Z,4.85
2018-12-30T17:32:02.247Z,4.70
2018-12-30T17:34:35.708Z,4.05
2018-12-30T17:37:09.398Z,5.30
2018-12-30T17:39:43.040Z,5.05
2018-12-30T17:42:16.721Z,4.40
2018-12-30T17:44:50.266Z,4.45
2018-12-30T17:47:24.839Z,4.50
2018-12-30T17:49:58.406Z,3.92
2018-12-30T17:52:31.962Z,5.53
2018-12-30T17:55:05.512Z,4.45
2018-12-30T17:57:39.110Z,4.05
2018-12-30T18:00:12.755Z,4.10
2018-12-30T18:02:46.411Z,5.47
2018-12-30T18:05:20.420Z,4.80
2018-12-30T18:07:53.983Z,4.80
2018-12-30T18:10:27.591Z,5.57
2018-12-30T18:13:01.105Z,5.97
2018-12-30T18:15:35.580Z,4.50
2018-12-30T18:18:09.371Z,5.05
2018-12-30T18:20:43.247Z,5.05
2018-12-30T18:23:17.603Z,4.37
2018-12-30T18:25:58.434Z,4.57
2018-12-30T18:28:25.051Z,4.93
2018-12-30T18:30:58.739Z,4.05
2018-12-30T18:33:32.348Z,4.53
2018-12-30T18:36:06.057Z,4.03
2018-12-30T18:38:40.408Z,4.20
2018-12-30T18:41:14.195Z,5.10
2018-12-30T18:43:47.847Z,4.10
2018-12-30T18:46:21.393Z,4.18
2018-12-30T18:48:54.994Z,5.07
2018-12-30T18:51:28.779Z,5.35
2018-12-30T18:54:02.520Z,5.45
2018-12-30T18:56:36.040Z,4.70
2018-12-30T18:59:09.598Z,3.67
2018-12-30T19:01:43.383Z,5.10
2018-12-30T19:04:16.909Z,5.78
2018-12-30T19:06:50.517Z,7.20
2018-12-30T19:09:24.151Z,4.95
2018-12-30T19:11:57.785Z,6.05
2018-12-30T19:14:31.517Z,6.50
2018-12-30T19:17:05.241Z,5.20
2018-12-30T19:19:39.668Z,4.93
2018-12-30T19:22:13.257Z,4.60
2018-12-30T19:24:46.881Z,4.50
2018-12-30T19:27:20.642Z,6.05
2018-12-30T19:29:54.250Z,4.75
2018-12-30T19:32:27.979Z,4.78
2018-12-30T19:35:01.540Z,4.60
2018-12-30T19:37:35.246Z,6.00
2018-12-30T19:40:09.050Z,3.97
2018-12-30T19:42:42.731Z,5.37
2018-12-30T19:45:16.432Z,5.12
2018-12-30T19:47:50.000Z,5.43
2018-12-30T19:50:23.695Z,4.45
2018-12-30T19:52:57.291Z,5.03
2018-12-30T19:55:30.875Z,5.65
2018-12-30T19:58:04.459Z,6.35
2018-12-30T20:00:38.044Z,4.90
2018-12-30T20:03:11.586Z,6.35
2018-12-30T20:05:45.314Z,5.10
2018-12-30T20:08:18.955Z,5.85
2018-12-30T20:10:52.580Z,6.15
2018-12-30T20:13:26.178Z,5.80
2018-12-30T20:16:00.528Z,4.87
2018-12-30T20:18:35.025Z,5.75
2018-12-30T20:21:08.670Z,5.37
2018-12-30T20:23:42.424Z,5.05
2018-12-30T20:26:16.086Z,5.68
2018-12-30T20:28:49.662Z,5.55
2018-12-30T20:31:23.412Z,4.57
2018-12-30T20:33:56.941Z,5.15
2018-12-30T20:36:30.503Z,5.32
2018-12-30T20:39:04.225Z,5.87
2018-12-30T20:41:38.016Z,4.97
2018-12-30T20:44:11.670Z,4.87
2018-12-30T20:46:45.971Z,6.07
2018-12-30T20:49:19.584Z,5.60
2018-12-30T20:51:53.913Z,5.30
2018-12-30T20:54:27.755Z,5.75
2018-12-30T20:57:02.203Z,5.62
2018-12-30T20:59:35.879Z,5.45
2018-12-30T21:02:09.571Z,5.62
2018-12-30T21:04:43.195Z,5.80
2018-12-30T21:07:16.836Z,5.93
2018-12-30T21:09:50.451Z,5.90
2018-12-30T21:12:24.120Z,5.45
2018-12-30T21:14:57.741Z,6.60
2018-12-30T21:17:32.136Z,4.65
2018-12-30T21:20:05.803Z,7.03
2018-12-30T21:22:39.402Z,6.85
2018-12-30T21:25:12.965Z,4.95
2018-12-30T21:27:46.806Z,6.68
2018-12-30T21:30:20.572Z,7.18
2018-12-30T21:32:54.174Z,7.43
2018-12-30T21:35:27.739Z,6.00
2018-12-30T21:38:01.307Z,6.35
2018-12-30T21:40:35.099Z,6.30
2018-12-30T21:43:08.679Z,6.32
2018-12-30T21:45:42.483Z,7.12
2018-12-30T21:48:17.021Z,6.25
2018-12-30T21:50:50.679Z,5.97
2018-12-30T21:53:24.400Z,6.50
2018-12-30T21:55:58.163Z,6.32
2018-12-30T21:58:32.565Z,6.20
2018-12-30T22:01:06.273Z,5.72
2018-12-30T22:03:40.026Z,7.03
2018-12-30T22:06:13.575Z,5.90
2018-12-30T22:08:47.105Z,6.18
2018-12-30T22:11:20.848Z,6.95
2018-12-30T22:13:54.694Z,7.50
2018-12-30T22:16:28.356Z,6.93
2018-12-30T22:19:02.028Z,6.15
2018-12-30T22:21:35.715Z,6.80
2018-12-30T22:24:09.334Z,6.57
2018-12-30T22:26:43.051Z,7.05
2018-12-30T22:29:16.584Z,6.05
2018-12-30T22:31:50.278Z,8.13
2018-12-30T22:34:24.612Z,6.45
2018-12-30T22:36:58.266Z,7.55
2018-12-30T22:39:31.913Z,7.55
2018-12-30T22:42:05.643Z,7.82
2018-12-30T22:44:40.195Z,6.43
2018-12-30T22:47:13.964Z,6.47
2018-12-30T22:49:48.212Z,6.18
2018-12-30T22:52:22.975Z,6.45
2018-12-30T22:54:56.560Z,8.52
2018-12-30T22:57:31.041Z,7.57
2018-12-30T23:00:04.733Z,8.32
2018-12-30T23:02:38.609Z,8.32
2018-12-30T23:05:12.334Z,9.05
2018-12-30T23:07:46.204Z,7.00
2018-12-30T23:10:19.985Z,6.85
2018-12-30T23:12:53.747Z,6.43
2018-12-30T23:15:27.304Z,6.82
2018-12-30T23:18:00.886Z,6.53
2018-12-30T23:20:34.621Z,5.62
2018-12-30T23:23:08.220Z,8.27
2018-12-30T23:25:41.867Z,6.30
2018-12-30T23:28:16.278Z,6.05
2018-12-30T23:30:49.974Z,5.75
2018-12-30T23:33:23.554Z,5.87
2018-12-30T23:35:57.129Z,7.62
2018-12-30T23:38:30.692Z,7.80
2018-12-30T23:41:04.461Z,6.05
2018-12-30T23:43:38.086Z,6.57
2018-12-30T23:46:12.203Z,5.70
2018-12-30T23:48:45.916Z,5.22
2018-12-30T23:51:19.602Z,5.82
2018-12-30T23:53:53.172Z,5.15
2018-12-30T23:56:27.512Z,5.95
2018-12-30T23:59:01.218Z,6.00
